sensor_id;sensor_type;location;lat;lon;timestamp;pressure;altitude;pressure_sealevel;temperature;humidity
48156;BME280;35568;48.104;11.782;2023-08-06T00:01:17;94718.19;;;15.79;57.82
48156;BME280;35568;48.104;11.782;2023-08-06T00:03:44;94719.92;;;15.66;58.18
48156;BME280;35568;48.104;11.782;2023-08-06T00:06:10;94725.09;;;15.96;57.94
48156;BME280;35568;48.104;11.782;2023-08-06T00:08:37;94729.54;;;15.82;57.81
48156;BME280;35568;48.104;11.782;2023-08-06T00:11:04;94736.55;;;15.89;58.06
48156;BME280;35568;48.104;11.782;2023-08-06T00:13:31;94734.73;;;15.99;58.08
48156;BME280;35568;48.104;11.782;2023-08-06T00:16:08;94731.82;;;15.87;58.79
48156;BME280;35568;48.104;11.782;2023-08-06T00:18:35;94737.17;;;15.46;58.70
48156;BME280;35568;48.104;11.782;2023-08-06T00:21:03;94738.66;;;15.39;58.77
48156;BME280;35568;48.104;11.782;2023-08-06T00:23:30;94740.69;;;15.93;58.39
48156;BME280;35568;48.104;11.782;2023-08-06T00:25:56;94744.44;;;15.66;58.51
48156;BME280;35568;48.104;11.782;2023-08-06T00:28:23;94746.88;;;15.72;58.32
48156;BME280;35568;48.104;11.782;2023-08-06T00:30:53;94751.17;;;15.66;58.46
48156;BME280;35568;48.104;11.782;2023-08-06T00:33:19;94750.73;;;15.62;58.59
48156;BME280;35568;48.104;11.782;2023-08-06T00:35:46;94751.90;;;15.15;58.69
48156;BME280;35568;48.104;11.782;2023-08-06T00:38:13;94751.01;;;15.75;58.69
48156;BME280;35568;48.104;11.782;2023-08-06T00:40:40;94751.63;;;15.64;58.76
48156;BME280;35568;48.104;11.782;2023-08-06T00:43:07;94751.20;;;15.37;58.57
48156;BME280;35568;48.104;11.782;2023-08-06T00:45:35;94742.95;;;15.78;58.47
48156;BME280;35568;48.104;11.782;2023-08-06T00:48:04;94739.61;;;15.68;58.24
48156;BME280;35568;48.104;11.782;2023-08-06T00:50:32;94741.14;;;15.22;58.28
48156;BME280;35568;48.104;11.782;2023-08-06T00:52:59;94738.83;;;15.27;58.47
48156;BME280;35568;48.104;11.782;2023-08-06T00:55:26;94737.52;;;15.32;58.56
48156;BME280;35568;48.104;11.782;2023-08-06T00:57:53;94734.25;;;15.57;58.47
48156;BME280;35568;48.104;11.782;2023-08-06T01:00:22;94727.17;;;15.30;58.40
48156;BME280;35568;48.104;11.782;2023-08-06T01:02:50;94720.94;;;15.22;58.42
48156;BME280;35568;48.104;11.782;2023-08-06T01:05:18;94720.86;;;15.48;58.37
48156;BME280;35568;48.104;11.782;2023-08-06T01:07:53;94723.79;;;15.36;58.31
48156;BME280;35568;48.104;11.782;2023-08-06T01:10:33;94725.72;;;15.10;58.11
48156;BME280;35568;48.104;11.782;2023-08-06T01:13:11;94729.50;;;14.86;58.27
48156;BME280;35568;48.104;11.782;2023-08-06T01:15:46;94738.47;;;15.20;58.14
48156;BME280;35568;48.104;11.782;2023-08-06T01:18:13;94734.07;;;15.01;58.43
48156;BME280;35568;48.104;11.782;2023-08-06T01:20:40;94732.46;;;14.68;58.63
48156;BME280;35568;48.104;11.782;2023-08-06T01:23:07;94732.10;;;15.16;59.04
48156;BME280;35568;48.104;11.782;2023-08-06T01:25:37;94725.87;;;15.04;58.36
48156;BME280;35568;48.104;11.782;2023-08-06T01:28:17;94725.75;;;15.20;58.22
48156;BME280;35568;48.104;11.782;2023-08-06T01:30:46;94720.90;;;15.15;58.01
48156;BME280;35568;48.104;11.782;2023-08-06T01:33:17;94718.53;;;14.82;58.01
48156;BME280;35568;48.104;11.782;2023-08-06T01:35:46;94718.23;;;15.20;58.01
48156;BME280;35568;48.104;11.782;2023-08-06T01:38:15;94713.11;;;14.99;58.07
48156;BME280;35568;48.104;11.782;2023-08-06T01:40:42;94715.50;;;14.93;58.20
48156;BME280;35568;48.104;11.782;2023-08-06T01:43:09;94714.66;;;15.00;58.08
48156;BME280;35568;48.104;11.782;2023-08-06T01:45:36;94715.88;;;15.10;58.04
48156;BME280;35568;48.104;11.782;2023-08-06T01:48:03;94714.05;;;14.95;58.30
48156;BME280;35568;48.104;11.782;2023-08-06T01:50:30;94711.93;;;14.95;58.44
48156;BME280;35568;48.104;11.782;2023-08-06T01:52:57;94714.67;;;14.95;58.37
48156;BME280;35568;48.104;11.782;2023-08-06T01:55:24;94713.52;;;14.78;58.53
48156;BME280;35568;48.104;11.782;2023-08-06T01:57:51;94710.85;;;14.62;58.87
48156;BME280;35568;48.104;11.782;2023-08-06T02:00:18;94706.61;;;14.65;58.75
48156;BME280;35568;48.104;11.782;2023-08-06T02:02:45;94705.18;;;14.54;59.18
48156;BME280;35568;48.104;11.782;2023-08-06T02:05:12;94707.38;;;14.60;59.03
48156;BME280;35568;48.104;11.782;2023-08-06T02:07:38;94705.05;;;14.38;59.16
48156;BME280;35568;48.104;11.782;2023-08-06T02:10:07;94701.91;;;14.51;59.06
48156;BME280;35568;48.104;11.782;2023-08-06T02:12:34;94699.46;;;14.39;58.98
48156;BME280;35568;48.104;11.782;2023-08-06T02:15:01;94696.67;;;14.40;59.18
48156;BME280;35568;48.104;11.782;2023-08-06T02:17:27;94693.87;;;14.61;58.85
48156;BME280;35568;48.104;11.782;2023-08-06T02:19:54;94690.40;;;14.47;58.90
48156;BME280;35568;48.104;11.782;2023-08-06T02:22:21;94684.66;;;14.42;59.25
48156;BME280;35568;48.104;11.782;2023-08-06T02:24:49;94684.11;;;14.52;59.33
48156;BME280;35568;48.104;11.782;2023-08-06T02:27:16;94684.20;;;15.04;58.97
48156;BME280;35568;48.104;11.782;2023-08-06T02:29:43;94685.52;;;14.45;59.13
48156;BME280;35568;48.104;11.782;2023-08-06T02:32:10;94680.44;;;14.59;58.66
48156;BME280;35568;48.104;11.782;2023-08-06T02:34:36;94675.94;;;14.40;58.98
48156;BME280;35568;48.104;11.782;2023-08-06T02:37:04;94673.10;;;14.30;58.93
48156;BME280;35568;48.104;11.782;2023-08-06T02:39:31;94671.34;;;14.31;58.82
48156;BME280;35568;48.104;11.782;2023-08-06T02:41:58;94668.62;;;14.33;58.83
48156;BME280;35568;48.104;11.782;2023-08-06T02:44:27;94666.04;;;14.41;58.66
48156;BME280;35568;48.104;11.782;2023-08-06T02:46:54;94662.69;;;14.20;59.11
48156;BME280;35568;48.104;11.782;2023-08-06T02:49:21;94661.78;;;14.06;58.82
48156;BME280;35568;48.104;11.782;2023-08-06T02:51:47;94653.50;;;13.96;58.92
48156;BME280;35568;48.104;11.782;2023-08-06T02:54:14;94651.78;;;14.11;59.27
48156;BME280;35568;48.104;11.782;2023-08-06T02:56:43;94646.38;;;14.11;59.03
48156;BME280;35568;48.104;11.782;2023-08-06T02:59:09;94644.25;;;14.45;58.55
48156;BME280;35568;48.104;11.782;2023-08-06T03:03:00;94629.74;;;14.45;58.26
48156;BME280;35568;48.104;11.782;2023-08-06T03:05:27;94618.31;;;14.64;57.96
48156;BME280;35568;48.104;11.782;2023-08-06T03:07:54;94618.23;;;14.40;58.07
48156;BME280;35568;48.104;11.782;2023-08-06T03:10:20;94615.31;;;14.26;58.38
48156;BME280;35568;48.104;11.782;2023-08-06T03:12:47;94617.09;;;14.30;58.13
48156;BME280;35568;48.104;11.782;2023-08-06T03:15:14;94618.15;;;14.31;58.05
48156;BME280;35568;48.104;11.782;2023-08-06T03:17:41;94620.40;;;14.01;58.22
48156;BME280;35568;48.104;11.782;2023-08-06T03:20:08;94621.26;;;14.22;58.29
48156;BME280;35568;48.104;11.782;2023-08-06T03:22:35;94624.84;;;14.46;58.74
48156;BME280;35568;48.104;11.782;2023-08-06T03:25:02;94625.25;;;13.83;58.88
48156;BME280;35568;48.104;11.782;2023-08-06T03:27:30;94627.04;;;13.96;58.98
48156;BME280;35568;48.104;11.782;2023-08-06T03:29:56;94630.33;;;14.20;58.86
48156;BME280;35568;48.104;11.782;2023-08-06T03:32:23;94638.82;;;13.96;58.88
48156;BME280;35568;48.104;11.782;2023-08-06T03:34:50;94640.50;;;14.22;58.80
48156;BME280;35568;48.104;11.782;2023-08-06T03:37:17;94640.02;;;14.04;59.04
48156;BME280;35568;48.104;11.782;2023-08-06T03:39:44;94636.93;;;13.76;59.08
48156;BME280;35568;48.104;11.782;2023-08-06T03:42:10;94630.72;;;13.67;58.84
48156;BME280;35568;48.104;11.782;2023-08-06T03:44:37;94630.00;;;13.69;58.83
48156;BME280;35568;48.104;11.782;2023-08-06T03:47:04;94629.36;;;14.17;58.77
48156;BME280;35568;48.104;11.782;2023-08-06T03:49:32;94629.82;;;13.83;58.68
48156;BME280;35568;48.104;11.782;2023-08-06T03:51:59;94630.38;;;13.96;58.76
48156;BME280;35568;48.104;11.782;2023-08-06T03:54:26;94627.63;;;13.94;58.94
48156;BME280;35568;48.104;11.782;2023-08-06T03:56:52;94627.05;;;14.02;58.78
48156;BME280;35568;48.104;11.782;2023-08-06T03:59:19;94629.18;;;13.92;58.89
48156;BME280;35568;48.104;11.782;2023-08-06T04:01:46;94627.94;;;13.84;58.95
48156;BME280;35568;48.104;11.782;2023-08-06T04:04:13;94628.81;;;13.50;59.23
48156;BME280;35568;48.104;11.782;2023-08-06T04:06:40;94625.66;;;13.75;59.06
48156;BME280;35568;48.104;11.782;2023-08-06T04:09:07;94624.76;;;13.69;59.22
48156;BME280;35568;48.104;11.782;2023-08-06T04:11:33;94623.69;;;13.31;59.45
48156;BME280;35568;48.104;11.782;2023-08-06T04:14:00;94621.62;;;13.76;59.47
48156;BME280;35568;48.104;11.782;2023-08-06T04:16:27;94622.20;;;13.63;59.39
48156;BME280;35568;48.104;11.782;2023-08-06T04:18:55;94620.87;;;13.57;59.23
48156;BME280;35568;48.104;11.782;2023-08-06T04:21:21;94621.67;;;13.54;59.23
48156;BME280;35568;48.104;11.782;2023-08-06T04:23:48;94621.78;;;13.59;59.18
48156;BME280;35568;48.104;11.782;2023-08-06T04:26:15;94618.94;;;13.54;59.08
48156;BME280;35568;48.104;11.782;2023-08-06T04:28:42;94617.95;;;13.67;59.00
48156;BME280;35568;48.104;11.782;2023-08-06T04:31:09;94616.13;;;13.52;59.04
48156;BME280;35568;48.104;11.782;2023-08-06T04:33:35;94616.83;;;13.56;59.11
48156;BME280;35568;48.104;11.782;2023-08-06T04:36:03;94618.51;;;13.26;59.00
48156;BME280;35568;48.104;11.782;2023-08-06T04:38:30;94622.36;;;13.67;58.85
48156;BME280;35568;48.104;11.782;2023-08-06T04:40:57;94621.97;;;13.73;58.91
48156;BME280;35568;48.104;11.782;2023-08-06T04:43:24;94624.99;;;13.87;58.57
48156;BME280;35568;48.104;11.782;2023-08-06T04:45:53;94623.44;;;13.81;58.41
48156;BME280;35568;48.104;11.782;2023-08-06T04:48:20;94624.85;;;14.17;58.12
48156;BME280;35568;48.104;11.782;2023-08-06T04:50:47;94626.38;;;14.16;58.05
48156;BME280;35568;48.104;11.782;2023-08-06T04:53:15;94623.49;;;13.95;58.10
48156;BME280;35568;48.104;11.782;2023-08-06T04:55:42;94623.68;;;13.98;58.01
48156;BME280;35568;48.104;11.782;2023-08-06T04:58:09;94625.92;;;14.02;57.89
48156;BME280;35568;48.104;11.782;2023-08-06T05:00:36;94629.35;;;14.36;57.66
48156;BME280;35568;48.104;11.782;2023-08-06T05:03:04;94628.10;;;14.33;57.03
48156;BME280;35568;48.104;11.782;2023-08-06T05:05:31;94628.31;;;14.51;57.53
48156;BME280;35568;48.104;11.782;2023-08-06T05:07:58;94628.33;;;14.51;56.80
48156;BME280;35568;48.104;11.782;2023-08-06T05:10:26;94627.13;;;14.34;56.91
48156;BME280;35568;48.104;11.782;2023-08-06T05:12:53;94629.57;;;14.33;56.54
48156;BME280;35568;48.104;11.782;2023-08-06T05:15:20;94628.67;;;14.37;56.56
48156;BME280;35568;48.104;11.782;2023-08-06T05:17:46;94634.12;;;14.53;56.25
48156;BME280;35568;48.104;11.782;2023-08-06T05:20:13;94636.18;;;14.43;56.70
48156;BME280;35568;48.104;11.782;2023-08-06T05:22:40;94641.16;;;14.50;56.47
48156;BME280;35568;48.104;11.782;2023-08-06T05:25:07;94641.42;;;14.57;56.60
48156;BME280;35568;48.104;11.782;2023-08-06T05:27:34;94640.60;;;14.58;56.45
48156;BME280;35568;48.104;11.782;2023-08-06T05:30:01;94641.86;;;14.55;56.24
48156;BME280;35568;48.104;11.782;2023-08-06T05:32:28;94640.36;;;14.59;56.44
48156;BME280;35568;48.104;11.782;2023-08-06T05:34:55;94638.67;;;14.62;56.20
48156;BME280;35568;48.104;11.782;2023-08-06T05:37:22;94637.65;;;14.76;55.86
48156;BME280;35568;48.104;11.782;2023-08-06T05:39:48;94634.82;;;14.77;55.95
48156;BME280;35568;48.104;11.782;2023-08-06T05:42:15;94634.41;;;14.49;55.39
48156;BME280;35568;48.104;11.782;2023-08-06T05:44:43;94633.97;;;14.82;55.91
48156;BME280;35568;48.104;11.782;2023-08-06T05:47:10;94632.58;;;14.80;55.98
48156;BME280;35568;48.104;11.782;2023-08-06T05:49:37;94634.11;;;14.79;55.76
48156;BME280;35568;48.104;11.782;2023-08-06T05:52:04;94631.54;;;14.77;55.82
48156;BME280;35568;48.104;11.782;2023-08-06T05:54:31;94633.16;;;14.61;55.78
48156;BME280;35568;48.104;11.782;2023-08-06T05:56:58;94635.68;;;14.64;55.42
48156;BME280;35568;48.104;11.782;2023-08-06T05:59:30;94636.15;;;14.78;55.56
48156;BME280;35568;48.104;11.782;2023-08-06T06:01:57;94637.02;;;14.74;55.31
48156;BME280;35568;48.104;11.782;2023-08-06T06:04:25;94638.12;;;14.70;55.67
48156;BME280;35568;48.104;11.782;2023-08-06T06:06:52;94636.28;;;14.77;55.78
48156;BME280;35568;48.104;11.782;2023-08-06T06:09:19;94634.55;;;14.69;55.49
48156;BME280;35568;48.104;11.782;2023-08-06T06:11:45;94639.15;;;14.67;54.99
48156;BME280;35568;48.104;11.782;2023-08-06T06:14:12;94639.10;;;15.00;54.99
48156;BME280;35568;48.104;11.782;2023-08-06T06:16:39;94638.25;;;14.59;54.82
48156;BME280;35568;48.104;11.782;2023-08-06T06:19:06;94640.70;;;14.83;55.03
48156;BME280;35568;48.104;11.782;2023-08-06T06:21:32;94641.62;;;14.81;54.99
48156;BME280;35568;48.104;11.782;2023-08-06T06:23:59;94641.42;;;14.96;55.08
48156;BME280;35568;48.104;11.782;2023-08-06T06:26:26;94642.93;;;15.12;53.91
48156;BME280;35568;48.104;11.782;2023-08-06T06:28:53;94645.06;;;15.09;53.89
48156;BME280;35568;48.104;11.782;2023-08-06T06:31:20;94647.20;;;14.64;54.34
48156;BME280;35568;48.104;11.782;2023-08-06T06:33:46;94640.50;;;15.02;54.02
48156;BME280;35568;48.104;11.782;2023-08-06T06:36:13;94642.14;;;15.20;53.47
48156;BME280;35568;48.104;11.782;2023-08-06T06:38:40;94640.96;;;15.13;52.95
48156;BME280;35568;48.104;11.782;2023-08-06T06:41:07;94639.92;;;15.32;53.11
48156;BME280;35568;48.104;11.782;2023-08-06T06:43:34;94639.02;;;15.57;53.27
48156;BME280;35568;48.104;11.782;2023-08-06T06:46:00;94641.62;;;15.74;53.12
48156;BME280;35568;48.104;11.782;2023-08-06T06:48:28;94638.86;;;16.04;52.34
48156;BME280;35568;48.104;11.782;2023-08-06T06:50:56;94639.83;;;15.84;51.86
48156;BME280;35568;48.104;11.782;2023-08-06T06:53:23;94641.84;;;16.02;51.16
48156;BME280;35568;48.104;11.782;2023-08-06T06:55:51;94643.56;;;16.17;51.24
48156;BME280;35568;48.104;11.782;2023-08-06T06:58:18;94645.39;;;16.27;51.09
48156;BME280;35568;48.104;11.782;2023-08-06T07:00:45;94647.81;;;16.34;51.06
48156;BME280;35568;48.104;11.782;2023-08-06T07:03:13;94643.26;;;16.80;51.20
48156;BME280;35568;48.104;11.782;2023-08-06T07:05:40;94639.65;;;16.46;50.31
48156;BME280;35568;48.104;11.782;2023-08-06T07:08:06;94638.89;;;17.12;50.43
48156;BME280;35568;48.104;11.782;2023-08-06T07:10:33;94636.37;;;16.90;50.37
48156;BME280;35568;48.104;11.782;2023-08-06T07:13:00;94639.31;;;16.94;49.64
48156;BME280;35568;48.104;11.782;2023-08-06T07:15:27;94642.33;;;17.11;48.99
48156;BME280;35568;48.104;11.782;2023-08-06T07:17:54;94640.08;;;16.53;48.56
48156;BME280;35568;48.104;11.782;2023-08-06T07:20:20;94640.38;;;16.87;49.28
48156;BME280;35568;48.104;11.782;2023-08-06T07:22:47;94639.45;;;17.57;48.89
48156;BME280;35568;48.104;11.782;2023-08-06T07:25:14;94637.44;;;17.92;49.32
48156;BME280;35568;48.104;11.782;2023-08-06T07:27:41;94642.31;;;17.84;47.17
48156;BME280;35568;48.104;11.782;2023-08-06T07:30:09;94637.65;;;18.09;47.36
48156;BME280;35568;48.104;11.782;2023-08-06T07:32:36;94644.31;;;18.17;46.87
48156;BME280;35568;48.104;11.782;2023-08-06T07:35:03;94641.01;;;17.54;46.45
48156;BME280;35568;48.104;11.782;2023-08-06T07:37:30;94640.62;;;16.79;46.51
48156;BME280;35568;48.104;11.782;2023-08-06T07:39:58;94642.94;;;16.91;48.45
48156;BME280;35568;48.104;11.782;2023-08-06T07:42:25;94646.21;;;16.71;48.44
48156;BME280;35568;48.104;11.782;2023-08-06T07:44:54;94641.80;;;16.72;49.28
48156;BME280;35568;48.104;11.782;2023-08-06T07:47:22;94651.40;;;16.06;48.43
48156;BME280;35568;48.104;11.782;2023-08-06T07:49:49;94648.02;;;15.98;49.70
48156;BME280;35568;48.104;11.782;2023-08-06T07:52:16;94647.98;;;15.90;50.03
48156;BME280;35568;48.104;11.782;2023-08-06T07:54:43;94639.83;;;15.72;50.03
48156;BME280;35568;48.104;11.782;2023-08-06T07:57:11;94635.19;;;15.83;49.07
48156;BME280;35568;48.104;11.782;2023-08-06T07:59:38;94633.27;;;16.48;49.46
48156;BME280;35568;48.104;11.782;2023-08-06T08:02:06;94631.93;;;16.38;49.56
48156;BME280;35568;48.104;11.782;2023-08-06T08:04:34;94622.46;;;16.17;49.28
48156;BME280;35568;48.104;11.782;2023-08-06T08:07:00;94613.66;;;16.33;49.63
48156;BME280;35568;48.104;11.782;2023-08-06T08:09:27;94608.17;;;16.38;49.58
48156;BME280;35568;48.104;11.782;2023-08-06T08:11:54;94600.42;;;16.29;48.74
48156;BME280;35568;48.104;11.782;2023-08-06T08:14:21;94593.86;;;17.29;47.45
48156;BME280;35568;48.104;11.782;2023-08-06T08:16:47;94595.29;;;18.11;46.80
48156;BME280;35568;48.104;11.782;2023-08-06T08:19:20;94588.04;;;18.69;45.86
48156;BME280;35568;48.104;11.782;2023-08-06T08:21:47;94589.46;;;18.62;43.98
48156;BME280;35568;48.104;11.782;2023-08-06T08:24:14;94584.33;;;19.09;44.13
48156;BME280;35568;48.104;11.782;2023-08-06T08:26:40;94576.69;;;18.91;43.79
48156;BME280;35568;48.104;11.782;2023-08-06T08:29:07;94574.76;;;19.76;43.69
48156;BME280;35568;48.104;11.782;2023-08-06T08:31:34;94578.13;;;19.87;42.43
48156;BME280;35568;48.104;11.782;2023-08-06T08:34:00;94578.60;;;19.98;41.22
48156;BME280;35568;48.104;11.782;2023-08-06T08:36:27;94583.19;;;19.64;41.46
48156;BME280;35568;48.104;11.782;2023-08-06T08:38:54;94584.85;;;19.38;42.36
48156;BME280;35568;48.104;11.782;2023-08-06T08:41:21;94578.57;;;19.57;42.31
48156;BME280;35568;48.104;11.782;2023-08-06T08:43:50;94578.65;;;18.93;42.28
48156;BME280;35568;48.104;11.782;2023-08-06T08:46:19;94583.24;;;18.84;41.83
48156;BME280;35568;48.104;11.782;2023-08-06T08:48:45;94581.84;;;19.01;42.79
48156;BME280;35568;48.104;11.782;2023-08-06T08:51:13;94589.48;;;19.14;42.71
48156;BME280;35568;48.104;11.782;2023-08-06T08:53:40;94594.70;;;19.54;41.47
48156;BME280;35568;48.104;11.782;2023-08-06T08:56:09;94588.08;;;19.42;41.40
48156;BME280;35568;48.104;11.782;2023-08-06T08:58:37;94583.00;;;19.17;40.58
48156;BME280;35568;48.104;11.782;2023-08-06T09:01:04;94579.55;;;18.81;41.15
48156;BME280;35568;48.104;11.782;2023-08-06T09:03:33;94588.26;;;18.03;41.98
48156;BME280;35568;48.104;11.782;2023-08-06T09:06:02;94589.45;;;17.15;42.94
48156;BME280;35568;48.104;11.782;2023-08-06T09:08:36;94602.19;;;17.00;44.22
48156;BME280;35568;48.104;11.782;2023-08-06T09:11:04;94600.07;;;17.28;43.94
48156;BME280;35568;48.104;11.782;2023-08-06T09:13:32;94613.02;;;17.26;43.38
48156;BME280;35568;48.104;11.782;2023-08-06T09:15:58;94608.88;;;17.75;43.63
48156;BME280;35568;48.104;11.782;2023-08-06T09:18:26;94610.34;;;18.26;42.63
48156;BME280;35568;48.104;11.782;2023-08-06T09:20:53;94606.52;;;17.86;42.04
48156;BME280;35568;48.104;11.782;2023-08-06T09:23:20;94609.16;;;17.54;42.35
48156;BME280;35568;48.104;11.782;2023-08-06T09:25:47;94609.73;;;17.34;42.67
48156;BME280;35568;48.104;11.782;2023-08-06T09:28:14;94617.12;;;17.40;43.58
48156;BME280;35568;48.104;11.782;2023-08-06T09:30:41;94644.07;;;16.14;45.80
48156;BME280;35568;48.104;11.782;2023-08-06T09:33:08;94631.33;;;15.83;46.72
48156;BME280;35568;48.104;11.782;2023-08-06T09:35:35;94631.88;;;15.79;46.59
48156;BME280;35568;48.104;11.782;2023-08-06T09:38:06;94631.00;;;16.65;45.54
48156;BME280;35568;48.104;11.782;2023-08-06T09:40:33;94623.27;;;16.77;44.27
48156;BME280;35568;48.104;11.782;2023-08-06T09:43:01;94627.48;;;17.11;43.48
48156;BME280;35568;48.104;11.782;2023-08-06T09:45:31;94612.16;;;17.37;43.81
48156;BME280;35568;48.104;11.782;2023-08-06T09:47:58;94629.47;;;16.96;43.93
48156;BME280;35568;48.104;11.782;2023-08-06T09:50:30;94629.73;;;17.18;43.91
48156;BME280;35568;48.104;11.782;2023-08-06T09:52:58;94627.51;;;17.18;43.81
48156;BME280;35568;48.104;11.782;2023-08-06T09:55:26;94628.64;;;17.15;44.69
48156;BME280;35568;48.104;11.782;2023-08-06T09:57:54;94636.94;;;16.54;44.01
48156;BME280;35568;48.104;11.782;2023-08-06T10:00:22;94637.08;;;16.64;44.30
48156;BME280;35568;48.104;11.782;2023-08-06T10:02:49;94627.32;;;17.05;43.72
48156;BME280;35568;48.104;11.782;2023-08-06T10:05:16;94632.70;;;17.04;44.03
48156;BME280;35568;48.104;11.782;2023-08-06T10:07:43;94630.24;;;17.25;42.64
48156;BME280;35568;48.104;11.782;2023-08-06T10:10:11;94624.24;;;16.96;43.69
48156;BME280;35568;48.104;11.782;2023-08-06T10:12:43;94622.32;;;17.12;43.25
48156;BME280;35568;48.104;11.782;2023-08-06T10:15:14;94626.62;;;16.88;43.07
48156;BME280;35568;48.104;11.782;2023-08-06T10:17:42;94624.36;;;17.12;43.41
48156;BME280;35568;48.104;11.782;2023-08-06T10:20:11;94619.14;;;16.63;43.72
48156;BME280;35568;48.104;11.782;2023-08-06T10:22:42;94629.10;;;15.62;44.41
48156;BME280;35568;48.104;11.782;2023-08-06T10:25:09;94628.77;;;15.69;44.52
48156;BME280;35568;48.104;11.782;2023-08-06T10:27:53;94628.52;;;16.19;44.16
48156;BME280;35568;48.104;11.782;2023-08-06T10:30:22;94636.32;;;16.13;43.92
48156;BME280;35568;48.104;11.782;2023-08-06T10:32:49;94628.06;;;16.25;43.72
48156;BME280;35568;48.104;11.782;2023-08-06T10:35:36;94629.11;;;16.42;44.17
48156;BME280;35568;48.104;11.782;2023-08-06T10:38:04;94626.35;;;16.57;44.61
48156;BME280;35568;48.104;11.782;2023-08-06T10:40:32;94630.65;;;16.67;43.42
48156;BME280;35568;48.104;11.782;2023-08-06T10:43:00;94620.51;;;16.98;43.32
48156;BME280;35568;48.104;11.782;2023-08-06T10:45:27;94618.67;;;17.32;42.54
48156;BME280;35568;48.104;11.782;2023-08-06T10:47:54;94618.00;;;16.89;42.67
48156;BME280;35568;48.104;11.782;2023-08-06T10:50:22;94624.79;;;16.60;43.31
48156;BME280;35568;48.104;11.782;2023-08-06T10:52:49;94636.92;;;16.33;43.73
48156;BME280;35568;48.104;11.782;2023-08-06T10:55:23;94639.44;;;16.33;44.05
48156;BME280;35568;48.104;11.782;2023-08-06T10:57:50;94629.32;;;16.52;43.80
48156;BME280;35568;48.104;11.782;2023-08-06T11:00:18;94648.68;;;16.85;42.82
48156;BME280;35568;48.104;11.782;2023-08-06T11:02:46;94639.95;;;16.65;43.69
48156;BME280;35568;48.104;11.782;2023-08-06T11:05:14;94639.56;;;16.45;43.69
48156;BME280;35568;48.104;11.782;2023-08-06T11:07:41;94646.88;;;16.79;43.16
48156;BME280;35568;48.104;11.782;2023-08-06T11:10:10;94641.53;;;16.69;43.66
48156;BME280;35568;48.104;11.782;2023-08-06T11:12:37;94642.10;;;16.47;43.77
48156;BME280;35568;48.104;11.782;2023-08-06T11:15:05;94651.83;;;17.15;43.44
48156;BME280;35568;48.104;11.782;2023-08-06T11:17:34;94648.65;;;17.04;43.10
48156;BME280;35568;48.104;11.782;2023-08-06T11:20:02;94649.25;;;16.77;42.85
48156;BME280;35568;48.104;11.782;2023-08-06T11:22:30;94662.66;;;16.92;43.56
48156;BME280;35568;48.104;11.782;2023-08-06T11:24:57;94659.23;;;16.59;43.88
48156;BME280;35568;48.104;11.782;2023-08-06T11:27:26;94647.36;;;17.18;42.92
48156;BME280;35568;48.104;11.782;2023-08-06T11:29:53;94654.66;;;17.37;42.56
48156;BME280;35568;48.104;11.782;2023-08-06T11:32:21;94655.27;;;17.02;42.42
48156;BME280;35568;48.104;11.782;2023-08-06T11:34:48;94660.44;;;17.22;42.75
48156;BME280;35568;48.104;11.782;2023-08-06T11:37:14;94673.63;;;16.48;43.71
48156;BME280;35568;48.104;11.782;2023-08-06T11:39:47;94677.77;;;15.73;44.38
48156;BME280;35568;48.104;11.782;2023-08-06T11:42:14;94668.87;;;15.29;45.48
48156;BME280;35568;48.104;11.782;2023-08-06T11:44:41;94677.48;;;15.57;45.07
48156;BME280;35568;48.104;11.782;2023-08-06T11:47:13;94684.78;;;16.09;44.37
48156;BME280;35568;48.104;11.782;2023-08-06T11:49:42;94669.79;;;16.69;43.35
48156;BME280;35568;48.104;11.782;2023-08-06T11:52:16;94682.21;;;16.77;43.17
48156;BME280;35568;48.104;11.782;2023-08-06T11:54:42;94681.22;;;17.05;43.29
48156;BME280;35568;48.104;11.782;2023-08-06T11:57:10;94685.19;;;16.76;43.79
48156;BME280;35568;48.104;11.782;2023-08-06T11:59:38;94687.82;;;16.62;44.55
48156;BME280;35568;48.104;11.782;2023-08-06T12:02:09;94680.57;;;16.80;44.32
48156;BME280;35568;48.104;11.782;2023-08-06T12:05:41;94686.87;;;16.61;45.28
48156;BME280;35568;48.104;11.782;2023-08-06T12:08:11;94688.94;;;16.80;44.00
48156;BME280;35568;48.104;11.782;2023-08-06T12:10:37;94687.09;;;16.73;43.67
48156;BME280;35568;48.104;11.782;2023-08-06T12:13:04;94687.41;;;16.73;43.83
48156;BME280;35568;48.104;11.782;2023-08-06T12:15:31;94692.78;;;16.45;44.18
48156;BME280;35568;48.104;11.782;2023-08-06T12:17:58;94701.09;;;15.97;45.45
48156;BME280;35568;48.104;11.782;2023-08-06T12:20:24;94696.38;;;16.08;45.57
48156;BME280;35568;48.104;11.782;2023-08-06T12:22:52;94699.21;;;16.13;45.84
48156;BME280;35568;48.104;11.782;2023-08-06T12:25:19;94704.49;;;15.48;46.30
48156;BME280;35568;48.104;11.782;2023-08-06T12:27:46;94697.69;;;15.81;46.18
48156;BME280;35568;48.104;11.782;2023-08-06T12:30:13;94696.84;;;15.96;45.46
48156;BME280;35568;48.104;11.782;2023-08-06T12:32:40;94693.33;;;16.22;45.25
48156;BME280;35568;48.104;11.782;2023-08-06T12:35:08;94694.27;;;16.50;45.20
48156;BME280;35568;48.104;11.782;2023-08-06T12:37:35;94693.02;;;16.66;44.74
48156;BME280;35568;48.104;11.782;2023-08-06T12:40:02;94700.03;;;16.81;45.02
48156;BME280;35568;48.104;11.782;2023-08-06T12:42:30;94693.07;;;16.75;45.11
48156;BME280;35568;48.104;11.782;2023-08-06T12:44:56;94696.32;;;16.62;44.77
48156;BME280;35568;48.104;11.782;2023-08-06T12:47:23;94688.39;;;16.67;45.00
48156;BME280;35568;48.104;11.782;2023-08-06T12:49:50;94695.23;;;16.65;44.91
48156;BME280;35568;48.104;11.782;2023-08-06T12:52:17;94698.30;;;16.41;45.12
48156;BME280;35568;48.104;11.782;2023-08-06T12:54:43;94694.14;;;16.24;45.71